Time;durP1;ratioP1;P1;durP2;ratioP2;P2;SDS_P1;SDS_P2;PMS_P1;PMS_P2;Temp;Humidity;BMP_temperature;BMP_pressure;BME280_temperature;BME280_humidity;BME280_pressure;Samples;Min_cycle;Max_cycle;Signal;HPM_P1;HPM_P2
2021/08/11 00:02:22;;;;;;;4.40;4.00;;;;;;;;;;5033621;28;20193;-77
2021/08/11 00:05:27;;;;;;;6.33;4.00;;;;;;;;;;5034052;28;20541;-77
2021/08/11 00:08:30;;;;;;;3.87;3.43;;;;;;;;;;5011048;28;20181;-77
2021/08/11 00:11:35;;;;;;;5.13;4.03;;;;;;;;;;5038399;28;20181;-76
2021/08/11 00:14:40;;;;;;;6.53;3.80;;;;;;;;;;5028140;28;20219;-76
2021/08/11 00:17:44;;;;;;;4.33;3.90;;;;;;;;;;5050464;28;20212;-77
2021/08/11 00:20:48;;;;;;;6.73;4.13;;;;;;;;;;5033648;28;20199;-76
2021/08/11 00:23:52;;;;;;;7.27;4.03;;;;;;;;;;5029789;28;20219;-77
2021/08/11 00:26:56;;;;;;;5.43;3.93;;;;;;;;;;5036379;28;20205;-77
2021/08/11 00:30:01;;;;;;;5.40;4.10;;;;;;;;;;5037429;28;20204;-77
2021/08/11 00:33:05;;;;;;;8.37;4.40;;;;;;;;;;5024850;28;20231;-76
2021/08/11 00:36:09;;;;;;;7.73;3.87;;;;;;;;;;5017683;28;20192;-76
2021/08/11 00:39:15;;;;;;;7.47;3.80;;;;;;;;;;5029916;28;20188;-76
2021/08/11 00:42:19;;;;;;;6.03;3.73;;;;;;;;;;5036196;28;20189;-77
2021/08/11 00:45:23;;;;;;;5.53;4.17;;;;;;;;;;5052290;28;20192;-77
2021/08/11 00:48:28;;;;;;;5.70;3.77;;;;;;;;;;5056218;28;20188;-76
2021/08/11 00:51:33;;;;;;;5.57;3.67;;;;;;;;;;5043922;28;20196;-77
2021/08/11 00:54:38;;;;;;;5.27;3.47;;;;;;;;;;5023222;28;20699;-77
2021/08/11 00:57:46;;;;;;;6.53;4.00;;;;;;;;;;5027604;28;20644;-76
2021/08/11 01:00:53;;;;;;;8.40;4.13;;;;;;;;;;5038808;28;20228;-76
2021/08/11 01:04:02;;;;;;;7.57;4.27;;;;;;;;;;5013883;28;20216;-76
2021/08/11 01:07:08;;;;;;;5.30;4.57;;;;;;;;;;5014540;28;20193;-77
2021/08/11 01:10:14;;;;;;;5.70;4.37;;;;;;;;;;5024935;28;20193;-77
2021/08/11 01:13:21;;;;;;;6.63;3.93;;;;;;;;;;5013615;28;20233;-77
2021/08/11 01:16:25;;;;;;;5.17;4.13;;;;;;;;;;5043244;28;20204;-76
2021/08/11 01:19:31;;;;;;;5.50;3.80;;;;;;;;;;5032354;28;20655;-76
2021/08/11 01:22:40;;;;;;;8.67;5.20;;;;;;;;;;5024883;28;20184;-76
2021/08/11 01:25:50;;;;;;;5.03;3.80;;;;;;;;;;5040957;28;20646;-76
2021/08/11 01:29:10;;;;;;;6.30;3.93;;;;;;;;;;5029846;28;20642;-76
2021/08/11 01:32:28;;;;;;;6.33;4.23;;;;;;;;;;5004068;28;20210;-77
2021/08/11 01:35:46;;;;;;;6.23;4.23;;;;;;;;;;5041639;28;20201;-76
2021/08/11 01:39:01;;;;;;;5.27;4.10;;;;;;;;;;4993171;28;20206;-76
2021/08/11 01:42:25;;;;;;;7.60;4.00;;;;;;;;;;5004178;28;20188;-76
2021/08/11 01:45:36;;;;;;;6.30;4.53;;;;;;;;;;5022480;28;20672;-76
2021/08/11 01:48:45;;;;;;;8.50;4.70;;;;;;;;;;5023352;28;20177;-77
2021/08/11 01:51:52;;;;;;;5.20;4.10;;;;;;;;;;5023582;28;20196;-77
2021/08/11 01:55:00;;;;;;;5.27;4.10;;;;;;;;;;5029283;28;20197;-77
2021/08/11 01:58:09;;;;;;;6.27;4.13;;;;;;;;;;5012639;28;20184;-76
2021/08/11 02:01:15;;;;;;;5.10;3.77;;;;;;;;;;5019660;28;20204;-76
2021/08/11 02:04:25;;;;;;;5.77;4.17;;;;;;;;;;5023611;28;20216;-76
2021/08/11 02:07:30;;;;;;;9.70;4.33;;;;;;;;;;5023858;28;20184;-77
2021/08/11 02:10:36;;;;;;;5.37;3.90;;;;;;;;;;5005323;28;20192;-77
2021/08/11 02:13:40;;;;;;;5.13;4.33;;;;;;;;;;5024256;28;20569;-77
2021/08/11 02:16:46;;;;;;;5.07;4.27;;;;;;;;;;5040321;28;20208;-76
2021/08/11 02:19:51;;;;;;;6.57;4.70;;;;;;;;;;5019569;28;20659;-76
2021/08/11 02:22:55;;;;;;;3.87;3.27;;;;;;;;;;5023480;28;20215;-76
2021/08/11 02:26:05;;;;;;;5.93;3.77;;;;;;;;;;5001333;28;20193;-76
2021/08/11 02:29:23;;;;;;;6.57;4.20;;;;;;;;;;5029147;28;20188;-76
2021/08/11 02:32:49;;;;;;;7.63;4.00;;;;;;;;;;5018330;28;20559;-77
2021/08/11 02:35:59;;;;;;;5.20;4.23;;;;;;;;;;5032141;28;20188;-77
2021/08/11 02:39:09;;;;;;;5.60;4.67;;;;;;;;;;5038326;28;20196;-77
2021/08/11 02:42:20;;;;;;;10.03;4.00;;;;;;;;;;5018832;28;20200;-77
2021/08/11 02:45:27;;;;;;;6.80;4.20;;;;;;;;;;5036196;28;20314;-77
2021/08/11 02:48:32;;;;;;;5.20;3.97;;;;;;;;;;5017591;28;20188;-77
2021/08/11 02:51:38;;;;;;;5.23;4.17;;;;;;;;;;4991524;28;20193;-77
2021/08/11 02:54:44;;;;;;;6.77;4.40;;;;;;;;;;5002419;28;20216;-76
2021/08/11 02:57:49;;;;;;;7.03;3.70;;;;;;;;;;5016063;28;20196;-77
2021/08/11 03:00:54;;;;;;;5.63;4.07;;;;;;;;;;5030745;28;20200;-76
2021/08/11 03:03:59;;;;;;;5.67;4.10;;;;;;;;;;5021673;28;20212;-77
2021/08/11 03:07:04;;;;;;;6.43;5.20;;;;;;;;;;5019415;28;20185;-77
2021/08/11 03:10:10;;;;;;;6.57;4.60;;;;;;;;;;5021490;28;20185;-77
2021/08/11 03:13:15;;;;;;;6.63;4.17;;;;;;;;;;5038044;28;20228;-77
2021/08/11 03:16:20;;;;;;;5.00;4.10;;;;;;;;;;5005018;28;20208;-77
2021/08/11 03:19:24;;;;;;;7.20;4.40;;;;;;;;;;5039929;28;20638;-77
2021/08/11 03:22:31;;;;;;;10.03;4.97;;;;;;;;;;5021846;28;20185;-77
2021/08/11 03:25:35;;;;;;;9.03;4.43;;;;;;;;;;5027050;28;20188;-76
2021/08/11 03:28:39;;;;;;;6.10;5.00;;;;;;;;;;5041370;28;20172;-77
2021/08/11 03:31:45;;;;;;;11.63;5.07;;;;;;;;;;5029750;28;20192;-77
2021/08/11 03:34:50;;;;;;;6.57;4.17;;;;;;;;;;5013770;28;20544;-77
2021/08/11 03:37:55;;;;;;;8.17;4.77;;;;;;;;;;5018020;28;20191;-77
2021/08/11 03:40:59;;;;;;;5.97;4.47;;;;;;;;;;5039392;28;20643;-77
2021/08/11 03:44:04;;;;;;;6.83;4.10;;;;;;;;;;5047940;28;20212;-77
2021/08/11 03:47:12;;;;;;;7.97;4.63;;;;;;;;;;5003343;28;20205;-76
2021/08/11 03:50:20;;;;;;;8.73;5.43;;;;;;;;;;5025187;28;20192;-76
2021/08/11 03:53:26;;;;;;;5.77;4.20;;;;;;;;;;5024955;28;20225;-77
2021/08/11 03:56:31;;;;;;;9.10;4.27;;;;;;;;;;5023110;28;20192;-77
2021/08/11 03:59:37;;;;;;;7.03;4.40;;;;;;;;;;5024902;28;20176;-76
2021/08/11 04:02:41;;;;;;;4.90;4.37;;;;;;;;;;5033226;28;20551;-76
2021/08/11 04:05:45;;;;;;;5.30;4.17;;;;;;;;;;5044271;28;20196;-76
2021/08/11 04:08:49;;;;;;;7.17;4.07;;;;;;;;;;5039825;28;20204;-76
2021/08/11 04:11:53;;;;;;;7.07;4.13;;;;;;;;;;5045771;28;20208;-76
2021/08/11 04:14:58;;;;;;;6.00;3.87;;;;;;;;;;5027888;28;20191;-75
2021/08/11 04:18:02;;;;;;;8.60;4.43;;;;;;;;;;5039386;28;20213;-77
2021/08/11 04:21:06;;;;;;;5.30;4.20;;;;;;;;;;5038215;28;20528;-77
2021/08/11 04:24:10;;;;;;;6.30;4.33;;;;;;;;;;5029366;28;20216;-77
2021/08/11 04:27:14;;;;;;;8.03;4.37;;;;;;;;;;5024272;28;20180;-74
2021/08/11 04:30:18;;;;;;;4.97;3.73;;;;;;;;;;5036547;28;20176;-74
2021/08/11 04:33:22;;;;;;;6.27;3.87;;;;;;;;;;5050503;28;20223;-74
2021/08/11 04:36:26;;;;;;;6.00;4.23;;;;;;;;;;5051272;28;20200;-74
2021/08/11 04:39:30;;;;;;;8.53;3.73;;;;;;;;;;5030588;28;20180;-74
2021/08/11 04:42:53;;;;;;;5.20;3.83;;;;;;;;;;5046207;28;20225;-74
2021/08/11 04:45:57;;;;;;;4.50;3.50;;;;;;;;;;5035763;28;20195;-75
2021/08/11 04:49:01;;;;;;;3.83;3.43;;;;;;;;;;5037252;28;20188;-75
2021/08/11 04:52:05;;;;;;;6.37;3.80;;;;;;;;;;5051738;28;20196;-75
2021/08/11 04:55:12;;;;;;;5.77;4.10;;;;;;;;;;5055921;28;20184;-74
2021/08/11 04:58:17;;;;;;;6.63;4.27;;;;;;;;;;5029135;28;20184;-75
2021/08/11 05:01:21;;;;;;;4.87;3.50;;;;;;;;;;5051278;28;20185;-75
2021/08/11 05:04:25;;;;;;;9.37;3.87;;;;;;;;;;5036017;28;20212;-75
2021/08/11 05:07:29;;;;;;;6.47;3.70;;;;;;;;;;5035924;28;20208;-75
2021/08/11 05:10:34;;;;;;;7.57;4.60;;;;;;;;;;5009625;28;20196;-75
2021/08/11 05:13:38;;;;;;;6.53;4.00;;;;;;;;;;5024373;28;20225;-75
2021/08/11 05:16:43;;;;;;;7.33;4.00;;;;;;;;;;5063585;22;20591;-71
2021/08/11 05:19:48;;;;;;;12.07;5.17;;;;;;;;;;5038838;28;20176;-71
2021/08/11 05:22:51;;;;;;;15.53;4.70;;;;;;;;;;5038719;28;20229;-71
2021/08/11 05:25:55;;;;;;;9.23;4.40;;;;;;;;;;5035789;28;20187;-71
2021/08/11 05:29:00;;;;;;;6.90;4.23;;;;;;;;;;5015885;28;20185;-70
2021/08/11 05:32:04;;;;;;;10.13;4.77;;;;;;;;;;5034671;28;20196;-70
2021/08/11 05:35:08;;;;;;;8.57;4.40;;;;;;;;;;5015226;28;20687;-71
2021/08/11 05:38:12;;;;;;;9.30;4.50;;;;;;;;;;5048027;28;20196;-74
2021/08/11 05:41:16;;;;;;;11.87;4.37;;;;;;;;;;5054796;28;20196;-74
2021/08/11 05:44:20;;;;;;;6.07;4.00;;;;;;;;;;5016327;28;20219;-74
2021/08/11 05:47:24;;;;;;;10.63;4.40;;;;;;;;;;5052270;28;21450;-74
2021/08/11 05:50:28;;;;;;;11.20;5.13;;;;;;;;;;5045639;28;20208;-74
2021/08/11 05:53:32;;;;;;;17.00;5.57;;;;;;;;;;5054862;28;20215;-74
2021/08/11 05:56:37;;;;;;;11.87;5.27;;;;;;;;;;5041024;28;20188;-74
2021/08/11 05:59:41;;;;;;;12.00;5.47;;;;;;;;;;5043674;28;20208;-74
2021/08/11 06:02:44;;;;;;;11.37;4.37;;;;;;;;;;5054914;28;20220;-74
2021/08/11 06:06:00;;;;;;;6.60;3.93;;;;;;;;;;5014356;28;20189;-74
2021/08/11 06:09:04;;;;;;;4.43;3.57;;;;;;;;;;5049433;28;20185;-74
2021/08/11 06:12:08;;;;;;;5.20;4.50;;;;;;;;;;5053279;28;20192;-74
2021/08/11 06:15:12;;;;;;;13.37;4.77;;;;;;;;;;5031556;28;20216;-74
2021/08/11 06:18:18;;;;;;;6.70;3.80;;;;;;;;;;5040718;28;20728;-74
2021/08/11 06:21:23;;;;;;;7.13;4.17;;;;;;;;;;5039611;28;20180;-74
2021/08/11 06:24:27;;;;;;;5.20;4.07;;;;;;;;;;5036921;28;20224;-74
2021/08/11 06:27:31;;;;;;;5.57;3.70;;;;;;;;;;5002435;28;20674;-75
2021/08/11 06:30:36;;;;;;;6.73;4.43;;;;;;;;;;5010939;28;20200;-74
2021/08/11 06:33:41;;;;;;;6.57;4.20;;;;;;;;;;5041148;28;20220;-74
2021/08/11 06:36:45;;;;;;;6.67;4.77;;;;;;;;;;5025052;28;20192;-74
2021/08/11 06:39:49;;;;;;;5.70;3.80;;;;;;;;;;5054005;28;20177;-74
2021/08/11 06:42:53;;;;;;;7.63;4.20;;;;;;;;;;5048151;28;20232;-75
2021/08/11 06:46:02;;;;;;;4.70;3.30;;;;;;;;;;5036600;28;20208;-74
2021/08/11 06:49:05;;;;;;;6.13;3.50;;;;;;;;;;5039390;28;20192;-74
2021/08/11 06:52:10;;;;;;;5.60;3.73;;;;;;;;;;5021667;28;20192;-75
2021/08/11 06:55:16;;;;;;;7.50;4.20;;;;;;;;;;5033531;28;20208;-75
2021/08/11 06:58:20;;;;;;;8.90;3.97;;;;;;;;;;5048189;28;20208;-75
2021/08/11 07:01:24;;;;;;;6.77;3.30;;;;;;;;;;5028378;28;20203;-74
2021/08/11 07:04:28;;;;;;;5.47;3.20;;;;;;;;;;5041545;28;20207;-75
2021/08/11 07:07:32;;;;;;;5.27;3.27;;;;;;;;;;5053559;28;20200;-75
2021/08/11 07:10:36;;;;;;;4.03;3.03;;;;;;;;;;5019564;28;20207;-74
2021/08/11 07:13:40;;;;;;;9.33;3.43;;;;;;;;;;5051258;28;20216;-74
2021/08/11 07:16:44;;;;;;;5.63;3.10;;;;;;;;;;5036412;28;20212;-75
2021/08/11 07:19:48;;;;;;;11.07;3.53;;;;;;;;;;5048255;28;20204;-74
2021/08/11 07:22:55;;;;;;;4.53;3.30;;;;;;;;;;5033559;28;20213;-75
2021/08/11 07:25:59;;;;;;;4.37;3.30;;;;;;;;;;5033662;28;20173;-75
2021/08/11 07:29:03;;;;;;;4.83;3.30;;;;;;;;;;5045933;28;20551;-75
2021/08/11 07:32:07;;;;;;;5.30;3.03;;;;;;;;;;5053009;28;20196;-74
2021/08/11 07:35:13;;;;;;;5.33;3.40;;;;;;;;;;5027255;28;20208;-74
2021/08/11 07:38:17;;;;;;;7.77;2.50;;;;;;;;;;5037970;28;20192;-74
2021/08/11 07:41:21;;;;;;;5.93;3.33;;;;;;;;;;5033297;28;20177;-75
2021/08/11 07:44:25;;;;;;;3.73;3.13;;;;;;;;;;5046676;28;20204;-74
2021/08/11 07:47:30;;;;;;;6.83;3.17;;;;;;;;;;5035323;28;20185;-75
2021/08/11 07:50:37;;;;;;;6.37;2.90;;;;;;;;;;5010045;28;20180;-75
2021/08/11 07:53:43;;;;;;;6.17;3.20;;;;;;;;;;5033142;28;20220;-75
2021/08/11 07:56:47;;;;;;;4.87;2.77;;;;;;;;;;5038302;28;20191;-74
2021/08/11 07:59:51;;;;;;;4.63;2.90;;;;;;;;;;5016336;28;20173;-74
2021/08/11 08:02:56;;;;;;;10.90;5.10;;;;;;;;;;5033510;28;20220;-75
2021/08/11 08:06:00;;;;;;;4.27;2.93;;;;;;;;;;5033298;28;20189;-75
2021/08/11 08:09:04;;;;;;;12.47;3.30;;;;;;;;;;5013541;28;20182;-75
2021/08/11 08:12:08;;;;;;;7.20;3.00;;;;;;;;;;5026684;28;20549;-74
2021/08/11 08:15:13;;;;;;;8.03;2.67;;;;;;;;;;5032464;28;20209;-74
2021/08/11 08:18:21;;;;;;;6.43;2.80;;;;;;;;;;5013058;28;20221;-75
2021/08/11 08:21:25;;;;;;;5.10;2.63;;;;;;;;;;5043389;28;20205;-74
2021/08/11 08:24:32;;;;;;;6.97;2.70;;;;;;;;;;5019967;28;20220;-75
2021/08/11 08:27:38;;;;;;;4.25;2.78;;;;;;;;;;5040896;28;20194;-74
2021/08/11 08:30:43;;;;;;;7.55;2.53;;;;;;;;;;5052676;28;20204;-75
2021/08/11 08:33:47;;;;;;;3.13;2.25;;;;;;;;;;5023779;28;20567;-74
2021/08/11 08:36:51;;;;;;;4.72;2.30;;;;;;;;;;5039864;28;20202;-75
2021/08/11 08:39:56;;;;;;;3.63;2.58;;;;;;;;;;5027412;28;20190;-75
2021/08/11 08:43:01;;;;;;;3.55;2.20;;;;;;;;;;5024403;28;20219;-75
2021/08/11 08:46:07;;;;;;;3.13;2.25;;;;;;;;;;5024078;28;20189;-75
2021/08/11 08:49:15;;;;;;;5.50;2.30;;;;;;;;;;5023846;28;20206;-75
2021/08/11 08:52:20;;;;;;;4.35;2.20;;;;;;;;;;5051102;28;20187;-75
2021/08/11 08:55:24;;;;;;;2.75;2.00;;;;;;;;;;5036058;28;20214;-75
2021/08/11 08:58:28;;;;;;;3.60;2.08;;;;;;;;;;5037151;28;20199;-75
2021/08/11 09:01:33;;;;;;;2.60;1.80;;;;;;;;;;5040319;28;20218;-75
2021/08/11 09:04:39;;;;;;;3.30;2.25;;;;;;;;;;5043547;28;20212;-75
2021/08/11 09:07:48;;;;;;;2.95;1.83;;;;;;;;;;5035320;28;20199;-75
2021/08/11 09:10:52;;;;;;;2.53;1.63;;;;;;;;;;5023733;28;20181;-75
2021/08/11 09:14:16;;;;;;;3.33;1.83;;;;;;;;;;5036955;28;20219;-75
2021/08/11 09:17:37;;;;;;;2.45;1.67;;;;;;;;;;5039810;28;20216;-76
2021/08/11 09:20:43;;;;;;;2.72;1.65;;;;;;;;;;5032284;28;20176;-76
2021/08/11 09:23:48;;;;;;;3.88;1.50;;;;;;;;;;5055387;28;20224;-75
2021/08/11 09:26:54;;;;;;;3.05;1.83;;;;;;;;;;5024211;28;20185;-75
2021/08/11 09:30:08;;;;;;;1.73;1.40;;;;;;;;;;5015646;28;20182;-76
2021/08/11 09:33:12;;;;;;;3.63;1.77;;;;;;;;;;5003722;28;20221;-75
2021/08/11 09:36:17;;;;;;;2.00;1.35;;;;;;;;;;5036792;28;20212;-75
2021/08/11 09:39:21;;;;;;;4.88;1.40;;;;;;;;;;5015518;28;20178;-75
2021/08/11 09:42:29;;;;;;;4.32;1.48;;;;;;;;;;5019156;28;20660;-75
2021/08/11 09:45:54;;;;;;;2.95;1.42;;;;;;;;;;5011736;28;20174;-76
2021/08/11 09:48:59;;;;;;;3.03;1.67;;;;;;;;;;5033706;28;20541;-75
2021/08/11 09:52:04;;;;;;;1.35;1.25;;;;;;;;;;5055180;28;20188;-76
2021/08/11 09:55:08;;;;;;;2.40;1.45;;;;;;;;;;5035662;28;20209;-75
2021/08/11 09:58:19;;;;;;;2.17;1.60;;;;;;;;;;5031196;28;20180;-75
2021/08/11 10:01:25;;;;;;;1.63;1.40;;;;;;;;;;5035917;28;20652;-76
2021/08/11 10:04:39;;;;;;;2.58;1.40;;;;;;;;;;5015170;28;20230;-76
2021/08/11 10:07:53;;;;;;;2.45;1.42;;;;;;;;;;5042244;28;20205;-76
2021/08/11 10:10:58;;;;;;;2.03;1.52;;;;;;;;;;5032695;28;20193;-76
2021/08/11 10:14:08;;;;;;;2.70;1.30;;;;;;;;;;5036817;28;20225;-75
2021/08/11 10:17:13;;;;;;;1.52;1.42;;;;;;;;;;5035170;28;20205;-76
2021/08/11 10:20:19;;;;;;;3.45;1.50;;;;;;;;;;5039648;28;20184;-76
2021/08/11 10:23:24;;;;;;;1.85;1.70;;;;;;;;;;5023389;28;20692;-76
2021/08/11 10:26:28;;;;;;;3.15;1.70;;;;;;;;;;5031967;28;20204;-75
2021/08/11 10:29:36;;;;;;;1.98;1.55;;;;;;;;;;5058589;28;20188;-76
2021/08/11 10:32:41;;;;;;;3.55;1.60;;;;;;;;;;5012151;28;20177;-76
2021/08/11 10:35:46;;;;;;;3.33;1.70;;;;;;;;;;5028637;28;20208;-76
2021/08/11 10:38:52;;;;;;;2.55;1.90;;;;;;;;;;5030046;28;20192;-75
2021/08/11 10:42:01;;;;;;;3.13;2.00;;;;;;;;;;5031900;28;20193;-76
2021/08/11 10:45:06;;;;;;;2.00;1.75;;;;;;;;;;5040794;28;20185;-75
2021/08/11 10:48:17;;;;;;;2.25;1.70;;;;;;;;;;5053828;28;20623;-76
2021/08/11 10:51:38;;;;;;;4.60;2.00;;;;;;;;;;5032336;28;20664;-76
2021/08/11 10:54:52;;;;;;;4.28;1.77;;;;;;;;;;5038996;28;20703;-75
2021/08/11 10:57:57;;;;;;;2.90;1.67;;;;;;;;;;5034115;28;20181;-75
2021/08/11 11:01:01;;;;;;;2.47;1.63;;;;;;;;;;5053405;28;20654;-76
2021/08/11 11:04:06;;;;;;;4.35;1.95;;;;;;;;;;5054009;28;20212;-76
2021/08/11 11:07:11;;;;;;;2.50;1.65;;;;;;;;;;5037464;28;20185;-76
2021/08/11 11:10:27;;;;;;;8.80;1.90;;;;;;;;;;5044831;28;20200;-76
2021/08/11 11:13:33;;;;;;;2.72;1.77;;;;;;;;;;5033198;28;20221;-76
2021/08/11 11:17:03;;;;;;;3.30;1.92;;;;;;;;;;5038198;23;20229;-88
2021/08/11 11:20:36;;;;;;;2.35;1.77;;;;;;;;;;4974878;28;20211;-86
2021/08/11 11:23:44;;;;;;;3.35;1.58;;;;;;;;;;4966548;28;20538;-86
2021/08/11 11:27:45;;;;;;;7.07;1.80;;;;;;;;;;4976515;28;20222;-86
2021/08/11 11:30:51;;;;;;;2.80;1.77;;;;;;;;;;4961681;28;20202;-85
2021/08/11 11:34:18;;;;;;;4.57;1.80;;;;;;;;;;4972730;28;20202;-85
2021/08/11 11:37:23;;;;;;;4.28;2.00;;;;;;;;;;4972034;28;20215;-84
2021/08/11 11:40:27;;;;;;;4.03;1.70;;;;;;;;;;4971814;28;20523;-84
2021/08/11 11:43:32;;;;;;;5.00;2.25;;;;;;;;;;4983517;28;20190;-84
2021/08/11 11:46:47;;;;;;;3.28;1.90;;;;;;;;;;4972385;28;20195;-84
2021/08/11 11:50:30;;;;;;;4.65;1.90;;;;;;;;;;4982610;28;20187;-85
2021/08/11 11:53:36;;;;;;;2.58;1.77;;;;;;;;;;4971547;28;20178;-85
2021/08/11 11:56:42;;;;;;;2.08;1.80;;;;;;;;;;4970943;28;20210;-85
2021/08/11 11:59:48;;;;;;;2.92;1.90;;;;;;;;;;4971067;28;20182;-85
2021/08/11 12:02:53;;;;;;;2.63;1.90;;;;;;;;;;4982159;28;20638;-85
2021/08/11 12:05:57;;;;;;;4.65;1.80;;;;;;;;;;4971136;28;20629;-85
2021/08/11 12:09:02;;;;;;;1.98;1.60;;;;;;;;;;4954416;28;20175;-85
2021/08/11 12:12:07;;;;;;;2.20;1.73;;;;;;;;;;4974604;28;20522;-85
2021/08/11 12:15:19;;;;;;;4.28;2.05;;;;;;;;;;4974484;28;20191;-85
2021/08/11 12:18:25;;;;;;;2.10;1.70;;;;;;;;;;4963281;28;20226;-85
2021/08/11 12:21:29;;;;;;;2.63;1.83;;;;;;;;;;4985835;28;20202;-85
2021/08/11 12:24:54;;;;;;;3.40;1.80;;;;;;;;;;4963475;28;20182;-85
2021/08/11 12:28:06;;;;;;;2.80;2.08;;;;;;;;;;4974278;28;20222;-85
2021/08/11 12:31:13;;;;;;;2.20;1.85;;;;;;;;;;4974234;28;20187;-85
2021/08/11 12:34:18;;;;;;;2.85;2.00;;;;;;;;;;4974773;28;20183;-85
2021/08/11 12:37:22;;;;;;;5.03;2.00;;;;;;;;;;4962986;28;20222;-85
2021/08/11 12:40:32;;;;;;;2.03;1.70;;;;;;;;;;4974191;28;20530;-85
2021/08/11 12:43:38;;;;;;;2.30;1.50;;;;;;;;;;4985314;28;20186;-85
2021/08/11 12:46:42;;;;;;;2.20;1.95;;;;;;;;;;4963158;28;20183;-85
2021/08/11 12:49:50;;;;;;;2.90;2.10;;;;;;;;;;4974448;28;20182;-85
2021/08/11 12:52:57;;;;;;;4.65;1.95;;;;;;;;;;4963034;28;20182;-85
2021/08/11 12:56:09;;;;;;;2.17;1.80;;;;;;;;;;4962819;28;20665;-85
2021/08/11 12:59:13;;;;;;;3.63;2.30;;;;;;;;;;4974077;28;20208;-85
2021/08/11 13:02:22;;;;;;;4.03;2.20;;;;;;;;;;4957203;28;20211;-85
2021/08/11 13:05:26;;;;;;;3.30;2.05;;;;;;;;;;4952992;28;20677;-85
2021/08/11 13:08:38;;;;;;;3.35;2.13;;;;;;;;;;4970119;28;20210;-85
2021/08/11 13:11:57;;;;;;;2.67;1.90;;;;;;;;;;4969152;28;20198;-85
2021/08/11 13:15:02;;;;;;;6.47;2.20;;;;;;;;;;4975127;28;20194;-85
2021/08/11 13:18:07;;;;;;;3.03;2.08;;;;;;;;;;4969647;28;20219;-89
2021/08/11 13:21:11;;;;;;;7.00;2.25;;;;;;;;;;4958356;28;20195;-85
2021/08/11 13:24:15;;;;;;;2.90;2.40;;;;;;;;;;4990456;28;20197;-85
2021/08/11 13:27:20;;;;;;;2.90;2.00;;;;;;;;;;4958337;28;20700;-86
2021/08/11 13:30:25;;;;;;;3.13;2.20;;;;;;;;;;4979407;28;20419;-85
2021/08/11 13:33:29;;;;;;;3.75;2.40;;;;;;;;;;4963932;28;20533;-84
2021/08/11 13:36:33;;;;;;;5.65;2.53;;;;;;;;;;4960504;28;20214;-85
2021/08/11 13:39:38;;;;;;;2.67;2.28;;;;;;;;;;4966713;28;20564;-85
2021/08/11 13:42:42;;;;;;;3.58;2.38;;;;;;;;;;4982965;28;20198;-84
2021/08/11 13:45:46;;;;;;;5.57;2.20;;;;;;;;;;4973198;28;20170;-84
2021/08/11 13:48:50;;;;;;;2.65;2.20;;;;;;;;;;4973095;28;20217;-84
2021/08/11 13:51:54;;;;;;;2.33;2.10;;;;;;;;;;4984179;28;20179;-84
2021/08/11 13:54:59;;;;;;;3.05;2.45;;;;;;;;;;4972788;28;20191;-84
2021/08/11 13:58:04;;;;;;;2.75;2.50;;;;;;;;;;4972637;28;20210;-84
2021/08/11 14:01:08;;;;;;;3.47;2.40;;;;;;;;;;4972574;28;20183;-84
2021/08/11 14:04:13;;;;;;;3.72;2.80;;;;;;;;;;4972862;28;20526;-84
2021/08/11 14:07:18;;;;;;;6.40;3.42;;;;;;;;;;4983682;28;20222;-84
2021/08/11 14:10:23;;;;;;;5.82;3.10;;;;;;;;;;4972423;28;20186;-84
2021/08/11 14:13:27;;;;;;;3.17;2.70;;;;;;;;;;4961694;28;20518;-84
2021/08/11 14:16:32;;;;;;;3.35;2.83;;;;;;;;;;4972273;28;20554;-84
2021/08/11 14:19:37;;;;;;;9.77;3.58;;;;;;;;;;4961627;28;20206;-84
2021/08/11 14:22:42;;;;;;;8.32;2.83;;;;;;;;;;4972457;28;20542;-84
2021/08/11 14:25:46;;;;;;;4.13;2.83;;;;;;;;;;4972597;28;20187;-84
2021/08/11 14:28:50;;;;;;;6.53;2.92;;;;;;;;;;4961313;28;20214;-84
2021/08/11 14:31:54;;;;;;;4.70;2.90;;;;;;;;;;4971796;28;20178;-84
2021/08/11 14:34:59;;;;;;;3.30;2.70;;;;;;;;;;4972015;28;20202;-84
2021/08/11 14:38:03;;;;;;;5.90;2.58;;;;;;;;;;4971935;28;20222;-84
2021/08/11 14:41:07;;;;;;;12.05;3.28;;;;;;;;;;4972148;28;20641;-84
2021/08/11 14:44:11;;;;;;;3.75;2.97;;;;;;;;;;4961037;28;20186;-84
2021/08/11 14:47:15;;;;;;;11.27;2.70;;;;;;;;;;4972423;28;20206;-85
2021/08/11 14:50:19;;;;;;;3.65;2.58;;;;;;;;;;4983602;28;20195;-85
2021/08/11 14:53:24;;;;;;;6.20;2.47;;;;;;;;;;4961289;28;20190;-85
2021/08/11 14:56:28;;;;;;;7.15;2.67;;;;;;;;;;4960751;28;20222;-85
2021/08/11 14:59:32;;;;;;;5.00;2.70;;;;;;;;;;4960911;28;20190;-85
2021/08/11 15:02:36;;;;;;;2.72;2.53;;;;;;;;;;4960892;28;20542;-84
2021/08/11 15:05:40;;;;;;;5.88;2.78;;;;;;;;;;4960544;28;20533;-84
2021/08/11 15:08:44;;;;;;;3.75;2.80;;;;;;;;;;4960247;28;20557;-84
2021/08/11 15:11:49;;;;;;;3.50;2.70;;;;;;;;;;4971656;28;20191;-84
2021/08/11 15:14:53;;;;;;;6.55;2.40;;;;;;;;;;4983024;28;20190;-84
2021/08/11 15:17:57;;;;;;;6.88;2.70;;;;;;;;;;4982055;28;20234;-84
2021/08/11 15:21:02;;;;;;;4.85;2.75;;;;;;;;;;4960339;28;20550;-84
2021/08/11 15:24:06;;;;;;;4.00;2.67;;;;;;;;;;4982482;28;20178;-84
2021/08/11 15:27:11;;;;;;;4.50;2.60;;;;;;;;;;4960569;28;20218;-84
2021/08/11 15:30:15;;;;;;;4.50;2.63;;;;;;;;;;4960248;28;20198;-84
2021/08/11 15:33:20;;;;;;;4.40;2.70;;;;;;;;;;4971166;28;20545;-84
2021/08/11 15:36:24;;;;;;;6.68;2.88;;;;;;;;;;4960231;28;20215;-84
2021/08/11 15:39:28;;;;;;;4.68;2.85;;;;;;;;;;4971185;28;20198;-84
2021/08/11 15:42:32;;;;;;;7.30;3.00;;;;;;;;;;4982116;28;20201;-84
2021/08/11 15:45:36;;;;;;;3.08;2.47;;;;;;;;;;4974759;28;20182;-84
2021/08/11 15:48:40;;;;;;;3.85;2.30;;;;;;;;;;4975268;28;20217;-84
2021/08/11 15:51:44;;;;;;;3.83;3.10;;;;;;;;;;4986411;28;20178;-84
2021/08/11 15:54:48;;;;;;;4.50;2.85;;;;;;;;;;4986599;28;20208;-86
2021/08/11 15:57:52;;;;;;;5.28;2.80;;;;;;;;;;4963551;28;20234;-85
2021/08/11 16:00:57;;;;;;;9.63;3.30;;;;;;;;;;4963950;28;20185;-86
2021/08/11 16:04:01;;;;;;;4.32;2.97;;;;;;;;;;4986238;28;20185;-86
2021/08/11 16:07:05;;;;;;;6.93;3.00;;;;;;;;;;4985856;28;20553;-86
2021/08/11 16:10:10;;;;;;;7.78;3.10;;;;;;;;;;4974859;28;20180;-86
2021/08/11 16:13:14;;;;;;;10.07;3.90;;;;;;;;;;4975033;28;20182;-86
2021/08/11 16:16:21;;;;;;;8.00;2.70;;;;;;;;;;4985570;28;20191;-86
2021/08/11 16:19:25;;;;;;;4.88;3.00;;;;;;;;;;4997890;28;20182;-86
2021/08/11 16:22:29;;;;;;;4.25;2.53;;;;;;;;;;4974329;28;20174;-86
2021/08/11 16:25:35;;;;;;;7.25;3.80;;;;;;;;;;4974630;28;20180;-86
2021/08/11 16:28:39;;;;;;;4.03;2.95;;;;;;;;;;4974354;28;20211;-85
2021/08/11 16:31:43;;;;;;;4.70;3.00;;;;;;;;;;4963506;28;20179;-86
2021/08/11 16:34:47;;;;;;;6.55;2.75;;;;;;;;;;4974635;28;20554;-86
2021/08/11 16:37:51;;;;;;;9.30;3.80;;;;;;;;;;4974095;28;20573;-86
2021/08/11 16:40:59;;;;;;;9.73;3.70;;;;;;;;;;4981525;28;20193;-86
2021/08/11 16:44:03;;;;;;;6.88;3.53;;;;;;;;;;4973443;28;20196;-89
2021/08/11 16:47:09;;;;;;;11.02;3.35;;;;;;;;;;4974292;28;20208;-89
2021/08/11 16:50:18;;;;;;;6.32;3.20;;;;;;;;;;4974356;28;20269;-89
2021/08/11 16:53:25;;;;;;;11.00;3.72;;;;;;;;;;4985333;28;20188;-89
2021/08/11 16:56:29;;;;;;;6.85;3.10;;;;;;;;;;4945695;28;20691;-86
2021/08/11 16:59:37;;;;;;;4.53;3.50;;;;;;;;;;4967512;28;20200;-86
2021/08/11 17:02:41;;;;;;;6.32;2.55;;;;;;;;;;4963084;28;20188;-86
2021/08/11 17:05:46;;;;;;;7.72;3.55;;;;;;;;;;4981693;28;20196;-86
2021/08/11 17:08:50;;;;;;;6.28;3.13;;;;;;;;;;4958634;28;20215;-86
2021/08/11 17:11:54;;;;;;;6.10;3.30;;;;;;;;;;4984436;28;20196;-86
2021/08/11 17:15:00;;;;;;;6.50;3.35;;;;;;;;;;4953624;28;20544;-86
2021/08/11 17:18:04;;;;;;;4.32;3.20;;;;;;;;;;4962815;28;20226;-86
2021/08/11 17:21:09;;;;;;;8.32;3.85;;;;;;;;;;5029679;23;20234;-85
2021/08/11 17:24:12;;;;;;;6.40;3.60;;;;;;;;;;4973585;28;20668;-85
2021/08/11 17:27:16;;;;;;;7.60;3.80;;;;;;;;;;5014856;28;20206;-86
2021/08/11 17:30:20;;;;;;;7.40;2.90;;;;;;;;;;5001205;28;20209;-86
2021/08/11 17:33:25;;;;;;;8.90;3.42;;;;;;;;;;5018040;28;20628;-86
2021/08/11 17:36:29;;;;;;;9.23;2.92;;;;;;;;;;5020162;28;20195;-86
2021/08/11 17:39:33;;;;;;;7.23;3.33;;;;;;;;;;4977978;28;20231;-86
2021/08/11 17:42:37;;;;;;;7.40;3.67;;;;;;;;;;5012062;28;20705;-86
2021/08/11 17:45:41;;;;;;;8.17;3.07;;;;;;;;;;5027942;28;20302;-86
2021/08/11 17:48:45;;;;;;;13.13;3.70;;;;;;;;;;5024255;28;20192;-86
2021/08/11 17:51:50;;;;;;;8.33;3.30;;;;;;;;;;5037908;28;20202;-85
2021/08/11 17:54:54;;;;;;;5.13;3.33;;;;;;;;;;5026228;28;20189;-86
2021/08/11 17:57:58;;;;;;;7.33;3.03;;;;;;;;;;5000256;28;20573;-85
2021/08/11 18:01:02;;;;;;;4.37;3.00;;;;;;;;;;5005805;28;20226;-86
2021/08/11 18:04:07;;;;;;;5.97;3.03;;;;;;;;;;5037954;28;20833;-85
2021/08/11 18:07:12;;;;;;;4.27;2.97;;;;;;;;;;5033884;28;20634;-85
2021/08/11 18:10:16;;;;;;;6.17;3.17;;;;;;;;;;5008851;28;20215;-85
2021/08/11 18:13:20;;;;;;;6.83;3.10;;;;;;;;;;5019126;28;20525;-85
2021/08/11 18:16:24;;;;;;;4.90;3.50;;;;;;;;;;5024908;28;20203;-86
2021/08/11 18:19:28;;;;;;;7.60;3.50;;;;;;;;;;5027806;28;20221;-86
2021/08/11 18:22:32;;;;;;;8.43;3.50;;;;;;;;;;5027154;28;20193;-85
2021/08/11 18:25:36;;;;;;;5.53;3.40;;;;;;;;;;5050649;28;20195;-87
2021/08/11 18:28:41;;;;;;;6.47;3.60;;;;;;;;;;5019410;28;20549;-85
2021/08/11 18:31:45;;;;;;;6.07;3.77;;;;;;;;;;5008171;28;20181;-86
2021/08/11 18:34:49;;;;;;;7.30;3.90;;;;;;;;;;5026057;28;20192;-85
2021/08/11 18:37:53;;;;;;;5.30;3.47;;;;;;;;;;5018990;28;20205;-85